Bushes, Louisiana
Current Conditions -  °F | °C
As of 2:53 PM on Friday 24 Oct 2014 (Local Time) from KMLU Reporting Station
Clear Clear  
Wind Chill: 73°   Ceiling: Unl
Heat Index: 73°   Visibility: 10mi
Dew Point: 47°   Wind: 7mph
Humidity: 39%   Direction: 330°NNW
Pressure: 30.12"   Gusts: NA
Location:  32.1434°N, 91.7026°W
Report Text: KMLU 241953Z 33006KT 10SM CLR 23/08 A3012 RMK AO2 SLP200 T02280083
Loading
Personal Weather Stations






























Interactive Weather Map
Tropical Storm Tracking
New forecast layout! Learn more

10-Day Weather Forecast

Advertisements
Track Severe Weather on mobile